<?xml version="1.0" encoding="UTF-8" standalone="no" ?>
<gpx xmlns="http://www.topografix.com/GPX/1/1" xmlns:xsi="http://www.w3.org/2001/XMLSchema-instance" xsi:schemaLocation="http://www.topografix.com/GPX/1/1 http://www.topografix.com/GPX/1/1/gpx.xsd" version="1.1" creator="VisuGPX - https://www.visugpx.com">
  <metadata>
    <name>TOUR Plogastel1-15km</name>
    <desc><![CDATA[moments difficiles en montée, mais praticable même pour des enfants (à partir de 11/12 ans)]]></desc>
  </metadata>
  <trk>
    <name><![CDATA[13374886-TOUR Plogastel1-15km]]></name>
    <trkseg>
      <trkpt lat="47.98223" lon="-4.26763">
        <ele>89</ele>
        <time>2021-07-11T16:50:29Z</time>
      </trkpt>
      <trkpt lat="47.98224" lon="-4.26679">
        <ele>83</ele>
        <time>2021-07-11T16:50:42Z</time>
      </trkpt>
      <trkpt lat="47.98177" lon="-4.26636">
        <ele>84</ele>
        <time>2021-07-11T16:50:55Z</time>
      </trkpt>
      <trkpt lat="47.98124" lon="-4.26617">
        <ele>86</ele>
        <time>2021-07-11T16:51:08Z</time>
      </trkpt>
      <trkpt lat="47.98088" lon="-4.26666">
        <ele>89</ele>
        <time>2021-07-11T16:51:19Z</time>
      </trkpt>
      <trkpt lat="47.97826" lon="-4.26432">
        <ele>89</ele>
        <time>2021-07-11T16:52:30Z</time>
      </trkpt>
      <trkpt lat="47.97796" lon="-4.26513">
        <ele>91</ele>
        <time>2021-07-11T16:52:45Z</time>
      </trkpt>
      <trkpt lat="47.97809" lon="-4.2655">
        <ele>92</ele>
        <time>2021-07-11T16:52:51Z</time>
      </trkpt>
      <trkpt lat="47.97799" lon="-4.26584">
        <ele>91</ele>
        <time>2021-07-11T16:52:57Z</time>
      </trkpt>
      <trkpt lat="47.97888" lon="-4.26695">
        <ele>93</ele>
        <time>2021-07-11T16:53:24Z</time>
      </trkpt>
      <trkpt lat="47.97818" lon="-4.2688">
        <ele>87</ele>
        <time>2021-07-11T16:53:57Z</time>
      </trkpt>
      <trkpt lat="47.97841" lon="-4.26894">
        <ele>89</ele>
        <time>2021-07-11T16:54:03Z</time>
      </trkpt>
      <trkpt lat="47.97845" lon="-4.27075">
        <ele>85</ele>
        <time>2021-07-11T16:54:32Z</time>
      </trkpt>
      <trkpt lat="47.97951" lon="-4.27126">
        <ele>86</ele>
        <time>2021-07-11T16:54:58Z</time>
      </trkpt>
      <trkpt lat="47.97949" lon="-4.27243">
        <ele>82</ele>
        <time>2021-07-11T16:55:16Z</time>
      </trkpt>
      <trkpt lat="47.97971" lon="-4.27296">
        <ele>79</ele>
        <time>2021-07-11T16:55:26Z</time>
      </trkpt>
      <trkpt lat="47.97987" lon="-4.27316">
        <ele>78</ele>
        <time>2021-07-11T16:55:31Z</time>
      </trkpt>
      <trkpt lat="47.97987" lon="-4.27379">
        <ele>75</ele>
        <time>2021-07-11T16:55:40Z</time>
      </trkpt>
      <trkpt lat="47.98042" lon="-4.27405">
        <ele>75</ele>
        <time>2021-07-11T16:55:54Z</time>
      </trkpt>
      <trkpt lat="47.97992" lon="-4.27551">
        <ele>78</ele>
        <time>2021-07-11T16:56:19Z</time>
      </trkpt>
      <trkpt lat="47.98049" lon="-4.27596">
        <ele>86</ele>
        <time>2021-07-11T16:56:35Z</time>
      </trkpt>
      <trkpt lat="47.98057" lon="-4.27746">
        <ele>94</ele>
        <time>2021-07-11T16:56:58Z</time>
      </trkpt>
      <trkpt lat="47.9808" lon="-4.2789">
        <ele>101</ele>
        <time>2021-07-11T16:57:21Z</time>
      </trkpt>
      <trkpt lat="47.98115" lon="-4.27968">
        <ele>104</ele>
        <time>2021-07-11T16:57:36Z</time>
      </trkpt>
      <trkpt lat="47.98127" lon="-4.28012">
        <ele>105</ele>
        <time>2021-07-11T16:57:43Z</time>
      </trkpt>
      <trkpt lat="47.98141" lon="-4.28011">
        <ele>106</ele>
        <time>2021-07-11T16:57:47Z</time>
      </trkpt>
      <trkpt lat="47.98179" lon="-4.28018">
        <ele>109</ele>
        <time>2021-07-11T16:57:56Z</time>
      </trkpt>
      <trkpt lat="47.98195" lon="-4.28063">
        <ele>111</ele>
        <time>2021-07-11T16:58:03Z</time>
      </trkpt>
      <trkpt lat="47.9819" lon="-4.28149">
        <ele>111</ele>
        <time>2021-07-11T16:58:17Z</time>
      </trkpt>
      <trkpt lat="47.98153" lon="-4.28148">
        <ele>108</ele>
        <time>2021-07-11T16:58:26Z</time>
      </trkpt>
      <trkpt lat="47.98122" lon="-4.28505">
        <ele>103</ele>
        <time>2021-07-11T16:59:22Z</time>
      </trkpt>
      <trkpt lat="47.9811" lon="-4.28957">
        <ele>114</ele>
        <time>2021-07-11T17:00:33Z</time>
      </trkpt>
      <trkpt lat="47.9814" lon="-4.29015">
        <ele>113</ele>
        <time>2021-07-11T17:00:44Z</time>
      </trkpt>
      <trkpt lat="47.98248" lon="-4.2889">
        <ele>117</ele>
        <time>2021-07-11T17:01:16Z</time>
      </trkpt>
      <trkpt lat="47.98414" lon="-4.28811">
        <ele>99</ele>
        <time>2021-07-11T17:01:57Z</time>
      </trkpt>
      <trkpt lat="47.9837" lon="-4.2865">
        <ele>100</ele>
        <time>2021-07-11T17:02:24Z</time>
      </trkpt>
      <trkpt lat="47.98388" lon="-4.28487">
        <ele>97</ele>
        <time>2021-07-11T17:02:50Z</time>
      </trkpt>
      <trkpt lat="47.98431" lon="-4.28408">
        <ele>96</ele>
        <time>2021-07-11T17:03:06Z</time>
      </trkpt>
      <trkpt lat="47.98434" lon="-4.28304">
        <ele>100</ele>
        <time>2021-07-11T17:03:22Z</time>
      </trkpt>
      <trkpt lat="47.984" lon="-4.28177">
        <ele>106</ele>
        <time>2021-07-11T17:03:43Z</time>
      </trkpt>
      <trkpt lat="47.98413" lon="-4.27937">
        <ele>91</ele>
        <time>2021-07-11T17:04:21Z</time>
      </trkpt>
      <trkpt lat="47.98339" lon="-4.27789">
        <ele>85</ele>
        <time>2021-07-11T17:04:50Z</time>
      </trkpt>
      <trkpt lat="47.98363" lon="-4.27729">
        <ele>82</ele>
        <time>2021-07-11T17:05:01Z</time>
      </trkpt>
      <trkpt lat="47.98488" lon="-4.27894">
        <ele>86</ele>
        <time>2021-07-11T17:05:40Z</time>
      </trkpt>
      <trkpt lat="47.98547" lon="-4.27954">
        <ele>87</ele>
        <time>2021-07-11T17:05:56Z</time>
      </trkpt>
      <trkpt lat="47.9867" lon="-4.28066">
        <ele>96</ele>
        <time>2021-07-11T17:06:30Z</time>
      </trkpt>
      <trkpt lat="47.98672" lon="-4.28123">
        <ele>94</ele>
        <time>2021-07-11T17:06:39Z</time>
      </trkpt>
      <trkpt lat="47.9879" lon="-4.28241">
        <ele>96</ele>
        <time>2021-07-11T17:07:12Z</time>
      </trkpt>
      <trkpt lat="47.98711" lon="-4.28475">
        <ele>85</ele>
        <time>2021-07-11T17:07:53Z</time>
      </trkpt>
      <trkpt lat="47.98938" lon="-4.28881">
        <ele>88</ele>
        <time>2021-07-11T17:09:16Z</time>
      </trkpt>
      <trkpt lat="47.99139" lon="-4.29065">
        <ele>95</ele>
        <time>2021-07-11T17:10:11Z</time>
      </trkpt>
      <trkpt lat="47.99326" lon="-4.291">
        <ele>105</ele>
        <time>2021-07-11T17:10:55Z</time>
      </trkpt>
      <trkpt lat="47.99345" lon="-4.29036">
        <ele>107</ele>
        <time>2021-07-11T17:11:06Z</time>
      </trkpt>
      <trkpt lat="47.99806" lon="-4.28905">
        <ele>124</ele>
        <time>2021-07-11T17:12:55Z</time>
      </trkpt>
      <trkpt lat="48.00042" lon="-4.28787">
        <ele>130</ele>
        <time>2021-07-11T17:13:53Z</time>
      </trkpt>
      <trkpt lat="48.00064" lon="-4.28753">
        <ele>129</ele>
        <time>2021-07-11T17:14:01Z</time>
      </trkpt>
      <trkpt lat="48.0023" lon="-4.28776">
        <ele>122</ele>
        <time>2021-07-11T17:14:40Z</time>
      </trkpt>
      <trkpt lat="48.00213" lon="-4.28609">
        <ele>122</ele>
        <time>2021-07-11T17:15:06Z</time>
      </trkpt>
      <trkpt lat="48.00231" lon="-4.28424">
        <ele>122</ele>
        <time>2021-07-11T17:15:35Z</time>
      </trkpt>
      <trkpt lat="48.00223" lon="-4.2827">
        <ele>129</ele>
        <time>2021-07-11T17:15:59Z</time>
      </trkpt>
      <trkpt lat="48.00156" lon="-4.28037">
        <ele>132</ele>
        <time>2021-07-11T17:16:39Z</time>
      </trkpt>
      <trkpt lat="48.0016" lon="-4.27842">
        <ele>133</ele>
        <time>2021-07-11T17:17:10Z</time>
      </trkpt>
      <trkpt lat="48.00058" lon="-4.27637">
        <ele>133</ele>
        <time>2021-07-11T17:17:49Z</time>
      </trkpt>
      <trkpt lat="48.00016" lon="-4.27504">
        <ele>131</ele>
        <time>2021-07-11T17:18:12Z</time>
      </trkpt>
      <trkpt lat="47.99995" lon="-4.27355">
        <ele>135</ele>
        <time>2021-07-11T17:18:36Z</time>
      </trkpt>
      <trkpt lat="47.99969" lon="-4.27222">
        <ele>136</ele>
        <time>2021-07-11T17:18:58Z</time>
      </trkpt>
      <trkpt lat="48.0015" lon="-4.27098">
        <ele>145</ele>
        <time>2021-07-11T17:19:44Z</time>
      </trkpt>
      <trkpt lat="48.00305" lon="-4.27087">
        <ele>140</ele>
        <time>2021-07-11T17:20:21Z</time>
      </trkpt>
      <trkpt lat="48.00377" lon="-4.26947">
        <ele>131</ele>
        <time>2021-07-11T17:20:48Z</time>
      </trkpt>
      <trkpt lat="48.00375" lon="-4.26665">
        <ele>127</ele>
        <time>2021-07-11T17:21:32Z</time>
      </trkpt>
      <trkpt lat="48.00387" lon="-4.26517">
        <ele>120</ele>
        <time>2021-07-11T17:21:56Z</time>
      </trkpt>
      <trkpt lat="48.00464" lon="-4.26261">
        <ele>106</ele>
        <time>2021-07-11T17:22:39Z</time>
      </trkpt>
      <trkpt lat="48.00392" lon="-4.26207">
        <ele>116</ele>
        <time>2021-07-11T17:22:58Z</time>
      </trkpt>
      <trkpt lat="48.00256" lon="-4.26178">
        <ele>136</ele>
        <time>2021-07-11T17:23:30Z</time>
      </trkpt>
      <trkpt lat="48.00237" lon="-4.26228">
        <ele>137</ele>
        <time>2021-07-11T17:23:39Z</time>
      </trkpt>
      <trkpt lat="48.0016" lon="-4.26214">
        <ele>143</ele>
        <time>2021-07-11T17:23:57Z</time>
      </trkpt>
      <trkpt lat="48.00119" lon="-4.26366">
        <ele>143</ele>
        <time>2021-07-11T17:24:23Z</time>
      </trkpt>
      <trkpt lat="47.99955" lon="-4.26322">
        <ele>137</ele>
        <time>2021-07-11T17:25:02Z</time>
      </trkpt>
      <trkpt lat="48.00039" lon="-4.25969">
        <ele>147</ele>
        <time>2021-07-11T17:26:01Z</time>
      </trkpt>
      <trkpt lat="47.99906" lon="-4.259">
        <ele>149</ele>
        <time>2021-07-11T17:26:33Z</time>
      </trkpt>
      <trkpt lat="48.00003" lon="-4.25683">
        <ele>147</ele>
        <time>2021-07-11T17:27:14Z</time>
      </trkpt>
      <trkpt lat="48.00001" lon="-4.25452">
        <ele>141</ele>
        <time>2021-07-11T17:27:50Z</time>
      </trkpt>
      <trkpt lat="48.00126" lon="-4.25402">
        <ele>136</ele>
        <time>2021-07-11T17:28:20Z</time>
      </trkpt>
      <trkpt lat="47.99998" lon="-4.25124">
        <ele>127</ele>
        <time>2021-07-11T17:29:13Z</time>
      </trkpt>
      <trkpt lat="47.99952" lon="-4.24911">
        <ele>131</ele>
        <time>2021-07-11T17:29:48Z</time>
      </trkpt>
      <trkpt lat="47.99827" lon="-4.24915">
        <ele>139</ele>
        <time>2021-07-11T17:30:17Z</time>
      </trkpt>
      <trkpt lat="47.99581" lon="-4.25128">
        <ele>142</ele>
        <time>2021-07-11T17:31:24Z</time>
      </trkpt>
      <trkpt lat="47.99538" lon="-4.25004">
        <ele>143</ele>
        <time>2021-07-11T17:31:46Z</time>
      </trkpt>
      <trkpt lat="47.99472" lon="-4.24956">
        <ele>143</ele>
        <time>2021-07-11T17:32:03Z</time>
      </trkpt>
      <trkpt lat="47.99386" lon="-4.25257">
        <ele>144</ele>
        <time>2021-07-11T17:32:54Z</time>
      </trkpt>
      <trkpt lat="47.99337" lon="-4.25527">
        <ele>142</ele>
        <time>2021-07-11T17:33:38Z</time>
      </trkpt>
      <trkpt lat="47.99345" lon="-4.26068">
        <ele>128</ele>
        <time>2021-07-11T17:35:02Z</time>
      </trkpt>
      <trkpt lat="47.99176" lon="-4.26561">
        <ele>123</ele>
        <time>2021-07-11T17:36:29Z</time>
      </trkpt>
      <trkpt lat="47.99038" lon="-4.26463">
        <ele>127</ele>
        <time>2021-07-11T17:37:04Z</time>
      </trkpt>
      <trkpt lat="47.98958" lon="-4.26609">
        <ele>126</ele>
        <time>2021-07-11T17:37:34Z</time>
      </trkpt>
      <trkpt lat="47.98932" lon="-4.26918">
        <ele>115</ele>
        <time>2021-07-11T17:38:23Z</time>
      </trkpt>
      <trkpt lat="47.98725" lon="-4.26849">
        <ele>110</ele>
        <time>2021-07-11T17:39:12Z</time>
      </trkpt>
      <trkpt lat="47.98624" lon="-4.26968">
        <ele>104</ele>
        <time>2021-07-11T17:39:42Z</time>
      </trkpt>
      <trkpt lat="47.98606" lon="-4.27013">
        <ele>102</ele>
        <time>2021-07-11T17:39:50Z</time>
      </trkpt>
      <trkpt lat="47.98543" lon="-4.27145">
        <ele>108</ele>
        <time>2021-07-11T17:40:16Z</time>
      </trkpt>
      <trkpt lat="47.9838" lon="-4.27084">
        <ele>114</ele>
        <time>2021-07-11T17:40:55Z</time>
      </trkpt>
      <trkpt lat="47.98305" lon="-4.27053">
        <ele>111</ele>
        <time>2021-07-11T17:41:13Z</time>
      </trkpt>
      <trkpt lat="47.98231" lon="-4.27044">
        <ele>107</ele>
        <time>2021-07-11T17:41:30Z</time>
      </trkpt>
      <trkpt lat="47.98213" lon="-4.26986">
        <ele>105</ele>
        <time>2021-07-11T17:41:40Z</time>
      </trkpt>
      <trkpt lat="47.98223" lon="-4.2686">
        <ele>101</ele>
        <time>2021-07-11T17:42:00Z</time>
      </trkpt>
    </trkseg>
  </trk>
</gpx>